sensor_id;sensor_type;location;lat;lon;timestamp;pressure;altitude;pressure_sealevel;temperature;humidity
65157;BME280;52745;49.794;18.258;2023-03-04T00:01:16;-15939.72;;;0.09;88.55
65157;BME280;52745;49.794;18.258;2023-03-04T00:03:42;-15934.78;;;-0.10;89.15
65157;BME280;52745;49.794;18.258;2023-03-04T00:06:09;-15934.63;;;-0.10;89.28
65157;BME280;52745;49.794;18.258;2023-03-04T00:08:36;-15937.78;;;0.02;89.07
65157;BME280;52745;49.794;18.258;2023-03-04T00:11:03;-15938.88;;;0.06;88.86
65157;BME280;52745;49.794;18.258;2023-03-04T00:13:30;-15939.44;;;0.08;88.86
65157;BME280;52745;49.794;18.258;2023-03-04T00:15:57;-15938.19;;;0.03;89.33
65157;BME280;52745;49.794;18.258;2023-03-04T00:18:24;-15938.88;;;0.06;89.46
65157;BME280;52745;49.794;18.258;2023-03-04T00:20:50;-15943.13;;;0.22;88.30
65157;BME280;52745;49.794;18.258;2023-03-04T00:23:17;-15939.28;;;0.07;88.61
65157;BME280;52745;49.794;18.258;2023-03-04T00:25:44;-15937.66;;;0.01;89.14
65157;BME280;52745;49.794;18.258;2023-03-04T00:28:11;-15937.09;;;-0.01;88.89
65157;BME280;52745;49.794;18.258;2023-03-04T00:30:38;-15935.47;;;-0.07;88.53
65157;BME280;52745;49.794;18.258;2023-03-04T00:33:05;-15932.16;;;-0.19;89.58
65157;BME280;52745;49.794;18.258;2023-03-04T00:35:32;-15930.53;;;-0.26;89.72
65157;BME280;52745;49.794;18.258;2023-03-04T00:37:59;-15930.25;;;-0.27;90.21
65157;BME280;52745;49.794;18.258;2023-03-04T00:40:26;-15928.59;;;-0.33;90.08
65157;BME280;52745;49.794;18.258;2023-03-04T00:42:52;-15930.25;;;-0.27;89.84
65157;BME280;52745;49.794;18.258;2023-03-04T00:45:19;-15930.66;;;-0.25;90.21
65157;BME280;52745;49.794;18.258;2023-03-04T00:47:46;-15929.00;;;-0.31;90.20
65157;BME280;52745;49.794;18.258;2023-03-04T00:50:13;-15928.34;;;-0.34;89.81
65157;BME280;52745;49.794;18.258;2023-03-04T00:52:40;-15930.66;;;-0.25;89.64
65157;BME280;52745;49.794;18.258;2023-03-04T00:55:07;-15920.66;;;-0.63;90.78
65157;BME280;52745;49.794;18.258;2023-03-04T00:57:34;-15918.47;;;-0.71;91.27
65157;BME280;52745;49.794;18.258;2023-03-04T01:00:01;-15919.84;;;-0.66;91.50
65157;BME280;52745;49.794;18.258;2023-03-04T01:02:28;-15920.38;;;-0.64;91.10
65157;BME280;52745;49.794;18.258;2023-03-04T01:04:55;-15920.09;;;-0.65;91.16
65157;BME280;52745;49.794;18.258;2023-03-04T01:07:22;-15921.19;;;-0.60;91.08
65157;BME280;52745;49.794;18.258;2023-03-04T01:09:49;-15920.66;;;-0.63;91.08
65157;BME280;52745;49.794;18.258;2023-03-04T01:12:15;-15917.09;;;-0.76;91.44
65157;BME280;52745;49.794;18.258;2023-03-04T01:14:43;-15916.28;;;-0.79;91.79
65157;BME280;52745;49.794;18.258;2023-03-04T01:17:10;-15915.59;;;-0.81;92.05
65157;BME280;52745;49.794;18.258;2023-03-04T01:19:37;-15916.94;;;-0.76;91.90
65157;BME280;52745;49.794;18.258;2023-03-04T01:22:04;-15916.94;;;-0.76;91.35
65157;BME280;52745;49.794;18.258;2023-03-04T01:24:31;-15919.84;;;-0.66;nan
65157;BME280;52745;49.794;18.258;2023-03-04T01:26:58;-15918.06;;;-0.72;90.97
65157;BME280;52745;49.794;18.258;2023-03-04T01:29:25;-15916.53;;;-0.78;91.55
65157;BME280;52745;49.794;18.258;2023-03-04T01:31:51;-15915.31;;;-0.82;91.56
65157;BME280;52745;49.794;18.258;2023-03-04T01:34:20;-15910.91;;;-0.99;92.04
65157;BME280;52745;49.794;18.258;2023-03-04T01:36:46;-15910.50;;;-1.00;92.18
65157;BME280;52745;49.794;18.258;2023-03-04T01:39:13;-15909.81;;;-1.03;92.65
65157;BME280;52745;49.794;18.258;2023-03-04T01:41:40;-15909.81;;;-1.03;92.38
65157;BME280;52745;49.794;18.258;2023-03-04T01:44:08;-15910.25;;;-1.01;92.42
65157;BME280;52745;49.794;18.258;2023-03-04T01:46:37;-15907.91;;;-1.10;92.43
65157;BME280;52745;49.794;18.258;2023-03-04T01:49:05;-15904.34;;;-1.23;93.57
65157;BME280;52745;49.794;18.258;2023-03-04T01:51:32;-15902.41;;;-1.31;93.93
65157;BME280;52745;49.794;18.258;2023-03-04T01:53:59;-15897.22;;;-1.50;94.20
65157;BME280;52745;49.794;18.258;2023-03-04T01:56:37;-15899.00;;;-1.43;94.71
65157;BME280;52745;49.794;18.258;2023-03-04T01:59:25;-15894.75;;;-1.59;95.24
65157;BME280;52745;49.794;18.258;2023-03-04T02:01:58;-15895.44;;;-1.57;95.19
65157;BME280;52745;49.794;18.258;2023-03-04T02:04:28;-15894.88;;;-1.59;95.33
65157;BME280;52745;49.794;18.258;2023-03-04T02:06:56;-15893.22;;;-1.65;95.88
65157;BME280;52745;49.794;18.258;2023-03-04T02:09:24;-15891.84;;;-1.70;95.99
65157;BME280;52745;49.794;18.258;2023-03-04T02:11:52;-15889.25;;;-1.80;96.91
65157;BME280;52745;49.794;18.258;2023-03-04T02:14:19;-15886.91;;;-1.89;97.38
65157;BME280;52745;49.794;18.258;2023-03-04T02:16:47;-15886.50;;;-1.90;97.71
65157;BME280;52745;49.794;18.258;2023-03-04T02:19:48;-15885.81;;;-1.93;97.94
65157;BME280;52745;49.794;18.258;2023-03-04T02:22:16;-15882.81;;;-2.04;98.13
65157;BME280;52745;49.794;18.258;2023-03-04T02:24:47;-15882.25;;;-2.06;98.60
65157;BME280;52745;49.794;18.258;2023-03-04T02:27:18;-15880.06;;;-2.14;99.02
65157;BME280;52745;49.794;18.258;2023-03-04T02:29:45;-15878.84;;;-2.19;99.02
65157;BME280;52745;49.794;18.258;2023-03-04T02:32:13;-15880.63;;;-2.12;98.77
65157;BME280;52745;49.794;18.258;2023-03-04T02:34:49;-15876.38;;;-2.28;99.28
65157;BME280;52745;49.794;18.258;2023-03-04T02:37:17;-15875.00;;;-2.33;99.38
65157;BME280;52745;49.794;18.258;2023-03-04T02:39:46;-15875.41;;;-2.32;99.81
65157;BME280;52745;49.794;18.258;2023-03-04T02:42:14;-15874.44;;;-2.35;99.40
65157;BME280;52745;49.794;18.258;2023-03-04T02:44:44;-15871.69;;;-2.45;99.54
65157;BME280;52745;49.794;18.258;2023-03-04T02:47:16;-15873.75;;;-2.38;99.81
65157;BME280;52745;49.794;18.258;2023-03-04T02:49:44;-15872.25;;;-2.43;99.50
65157;BME280;52745;49.794;18.258;2023-03-04T02:52:23;-15869.63;;;-2.53;100.00
65157;BME280;52745;49.794;18.258;2023-03-04T02:54:50;-15866.63;;;-2.64;100.00
65157;BME280;52745;49.794;18.258;2023-03-04T02:57:17;-15865.38;;;-2.69;100.00
65157;BME280;52745;49.794;18.258;2023-03-04T02:59:48;-15866.22;;;-2.66;100.00
65157;BME280;52745;49.794;18.258;2023-03-04T03:02:19;-15864.84;;;-2.71;100.00
65157;BME280;52745;49.794;18.258;2023-03-04T03:04:46;-15863.31;;;-2.77;100.00
65157;BME280;52745;49.794;18.258;2023-03-04T03:07:15;-15864.00;;;-2.74;100.00
65157;BME280;52745;49.794;18.258;2023-03-04T03:09:43;-15861.53;;;-2.83;100.00
65157;BME280;52745;49.794;18.258;2023-03-04T03:12:10;-15861.41;;;-2.84;100.00
65157;BME280;52745;49.794;18.258;2023-03-04T03:14:37;-15862.09;;;-2.81;100.00
65157;BME280;52745;49.794;18.258;2023-03-04T03:17:05;-15864.16;;;-2.74;100.00
65157;BME280;52745;49.794;18.258;2023-03-04T03:19:32;-15864.16;;;-2.74;100.00
65157;BME280;52745;49.794;18.258;2023-03-04T03:22:02;-15864.97;;;-2.71;100.00
65157;BME280;52745;49.794;18.258;2023-03-04T03:24:28;-15864.56;;;-2.72;100.00
65157;BME280;52745;49.794;18.258;2023-03-04T03:26:55;-15862.78;;;-2.79;100.00
65157;BME280;52745;49.794;18.258;2023-03-04T03:29:22;-15862.50;;;-2.80;100.00
65157;BME280;52745;49.794;18.258;2023-03-04T03:31:49;-15862.09;;;-2.81;100.00
65157;BME280;52745;49.794;18.258;2023-03-04T03:34:16;-15863.88;;;-2.75;100.00
65157;BME280;52745;49.794;18.258;2023-03-04T03:36:43;-15861.81;;;-2.82;100.00
65157;BME280;52745;49.794;18.258;2023-03-04T03:39:09;-15864.69;;;-2.72;100.00
65157;BME280;52745;49.794;18.258;2023-03-04T03:41:36;-15866.34;;;-2.65;100.00
65157;BME280;52745;49.794;18.258;2023-03-04T03:44:03;-15863.59;;;-2.76;100.00
65157;BME280;52745;49.794;18.258;2023-03-04T03:46:30;-15867.44;;;-2.61;100.00
65157;BME280;52745;49.794;18.258;2023-03-04T03:48:57;-15865.78;;;-2.67;100.00
65157;BME280;52745;49.794;18.258;2023-03-04T03:51:23;-15865.78;;;-2.67;100.00
65157;BME280;52745;49.794;18.258;2023-03-04T03:53:50;-15867.03;;;-2.63;100.00
65157;BME280;52745;49.794;18.258;2023-03-04T03:56:17;-15869.09;;;-2.55;100.00
65157;BME280;52745;49.794;18.258;2023-03-04T03:58:44;-15868.00;;;-2.59;100.00
65157;BME280;52745;49.794;18.258;2023-03-04T04:01:11;-15869.38;;;-2.54;100.00
65157;BME280;52745;49.794;18.258;2023-03-04T04:03:37;-15869.22;;;-2.55;100.00
65157;BME280;52745;49.794;18.258;2023-03-04T04:06:04;-15869.63;;;-2.53;100.00
65157;BME280;52745;49.794;18.258;2023-03-04T04:08:31;-15868.94;;;-2.56;100.00
65157;BME280;52745;49.794;18.258;2023-03-04T04:10:58;-15871.69;;;-2.45;100.00
65157;BME280;52745;49.794;18.258;2023-03-04T04:13:25;-15872.94;;;-2.41;100.00
65157;BME280;52745;49.794;18.258;2023-03-04T04:15:52;-15873.75;;;-2.38;100.00
65157;BME280;52745;49.794;18.258;2023-03-04T04:18:19;-15875.94;;;-2.30;100.00
65157;BME280;52745;49.794;18.258;2023-03-04T04:20:46;-15877.72;;;-2.23;99.44
65157;BME280;52745;49.794;18.258;2023-03-04T04:23:13;-15878.56;;;-2.20;99.49
65157;BME280;52745;49.794;18.258;2023-03-04T04:25:39;-15879.25;;;-2.17;99.18
65157;BME280;52745;49.794;18.258;2023-03-04T04:28:06;-15879.78;;;-2.15;99.07
65157;BME280;52745;49.794;18.258;2023-03-04T04:30:33;-15881.97;;;-2.07;99.11
65157;BME280;52745;49.794;18.258;2023-03-04T04:33:00;-15882.94;;;-2.03;98.57
65157;BME280;52745;49.794;18.258;2023-03-04T04:35:31;-15884.31;;;-1.98;98.73
65157;BME280;52745;49.794;18.258;2023-03-04T04:37:58;-15886.66;;;-1.90;98.04
65157;BME280;52745;49.794;18.258;2023-03-04T04:40:26;-15886.09;;;-1.92;98.11
65157;BME280;52745;49.794;18.258;2023-03-04T04:42:53;-15887.47;;;-1.87;97.77
65157;BME280;52745;49.794;18.258;2023-03-04T04:45:19;-15890.75;;;-1.74;97.13
65157;BME280;52745;49.794;18.258;2023-03-04T04:47:46;-15889.94;;;-1.77;96.80
65157;BME280;52745;49.794;18.258;2023-03-04T04:50:13;-15887.75;;;-1.85;96.78
65157;BME280;52745;49.794;18.258;2023-03-04T04:52:40;-15884.59;;;-1.97;97.87
65157;BME280;52745;49.794;18.258;2023-03-04T04:55:07;-15885.69;;;-1.93;97.74
65157;BME280;52745;49.794;18.258;2023-03-04T04:57:34;-15885.56;;;-1.94;97.89
65157;BME280;52745;49.794;18.258;2023-03-04T05:00:03;-15885.41;;;-1.94;97.89
65157;BME280;52745;49.794;18.258;2023-03-04T05:02:30;-15887.75;;;-1.85;98.04
65157;BME280;52745;49.794;18.258;2023-03-04T05:05:03;-15885.56;;;-1.94;97.61
65157;BME280;52745;49.794;18.258;2023-03-04T05:07:30;-15885.41;;;-1.94;98.13
65157;BME280;52745;49.794;18.258;2023-03-04T05:09:57;-15886.78;;;-1.89;97.93
65157;BME280;52745;49.794;18.258;2023-03-04T05:12:24;-15885.56;;;-1.94;98.05
65157;BME280;52745;49.794;18.258;2023-03-04T05:14:50;-15885.28;;;-1.95;97.95
65157;BME280;52745;49.794;18.258;2023-03-04T05:17:17;-15885.56;;;-1.94;97.61
65157;BME280;52745;49.794;18.258;2023-03-04T05:19:44;-15886.09;;;-1.92;97.10
65157;BME280;52745;49.794;18.258;2023-03-04T05:22:11;-15884.31;;;-1.98;97.47
65157;BME280;52745;49.794;18.258;2023-03-04T05:24:37;-15883.91;;;-2.00;97.51
65157;BME280;52745;49.794;18.258;2023-03-04T05:27:04;-15885.00;;;-1.96;96.75
65157;BME280;52745;49.794;18.258;2023-03-04T05:29:31;-15885.69;;;-1.93;96.86
65157;BME280;52745;49.794;18.258;2023-03-04T05:31:58;-15886.91;;;-1.89;96.33
65157;BME280;52745;49.794;18.258;2023-03-04T05:34:24;-15887.75;;;-1.85;96.47
65157;BME280;52745;49.794;18.258;2023-03-04T05:36:51;-15888.84;;;-1.81;96.11
65157;BME280;52745;49.794;18.258;2023-03-04T05:39:18;-15890.22;;;-1.76;96.21
65157;BME280;52745;49.794;18.258;2023-03-04T05:41:45;-15892.13;;;-1.69;95.70
65157;BME280;52745;49.794;18.258;2023-03-04T05:44:11;-15892.28;;;-1.69;95.36
65157;BME280;52745;49.794;18.258;2023-03-04T05:46:38;-15894.31;;;-1.61;95.29
65157;BME280;52745;49.794;18.258;2023-03-04T05:49:05;-15895.00;;;-1.58;95.09
65157;BME280;52745;49.794;18.258;2023-03-04T05:51:32;-15897.06;;;-1.51;94.57
65157;BME280;52745;49.794;18.258;2023-03-04T05:53:58;-15900.09;;;-1.39;94.34
65157;BME280;52745;49.794;18.258;2023-03-04T05:56:25;-15901.03;;;-1.36;94.01
65157;BME280;52745;49.794;18.258;2023-03-04T05:58:56;-15902.69;;;-1.30;94.13
65157;BME280;52745;49.794;18.258;2023-03-04T06:01:23;-15903.94;;;-1.25;93.76
65157;BME280;52745;49.794;18.258;2023-03-04T06:03:50;-15904.75;;;-1.22;92.98
65157;BME280;52745;49.794;18.258;2023-03-04T06:06:17;-15906.66;;;-1.15;92.16
65157;BME280;52745;49.794;18.258;2023-03-04T06:08:44;-15905.16;;;-1.20;92.41
65157;BME280;52745;49.794;18.258;2023-03-04T06:11:11;-15905.72;;;-1.18;92.40
65157;BME280;52745;49.794;18.258;2023-03-04T06:13:37;-15904.19;;;-1.24;92.64
65157;BME280;52745;49.794;18.258;2023-03-04T06:16:05;-15904.06;;;-1.25;93.00
65157;BME280;52745;49.794;18.258;2023-03-04T06:18:31;-15901.72;;;-1.33;93.47
65157;BME280;52745;49.794;18.258;2023-03-04T06:21:00;-15901.72;;;-1.33;93.99
65157;BME280;52745;49.794;18.258;2023-03-04T06:23:28;-15903.66;;;-1.26;94.60
65157;BME280;52745;49.794;18.258;2023-03-04T06:25:58;-15906.81;;;-1.14;93.96
65157;BME280;52745;49.794;18.258;2023-03-04T06:28:25;-15908.31;;;-1.09;93.03
65157;BME280;52745;49.794;18.258;2023-03-04T06:30:53;-15907.91;;;-1.10;92.58
65157;BME280;52745;49.794;18.258;2023-03-04T06:33:20;-15909.41;;;-1.05;92.31
65157;BME280;52745;49.794;18.258;2023-03-04T06:35:47;-15906.41;;;-1.16;91.84
65157;BME280;52745;49.794;18.258;2023-03-04T06:38:14;-15903.09;;;-1.28;91.81
65157;BME280;52745;49.794;18.258;2023-03-04T06:40:41;-15901.88;;;-1.33;91.99
65157;BME280;52745;49.794;18.258;2023-03-04T06:43:08;-15899.00;;;-1.43;92.21
65157;BME280;52745;49.794;18.258;2023-03-04T06:45:34;-15894.88;;;-1.59;92.40
65157;BME280;52745;49.794;18.258;2023-03-04T06:48:04;-15892.69;;;-1.67;93.40
65157;BME280;52745;49.794;18.258;2023-03-04T06:50:31;-15893.78;;;-1.63;93.77
65157;BME280;52745;49.794;18.258;2023-03-04T06:52:58;-15895.44;;;-1.57;92.98
65157;BME280;52745;49.794;18.258;2023-03-04T06:55:24;-15894.47;;;-1.60;93.02
65157;BME280;52745;49.794;18.258;2023-03-04T06:57:51;-15898.16;;;-1.47;92.63
65157;BME280;52745;49.794;18.258;2023-03-04T07:00:18;-15901.72;;;-1.33;91.68
65157;BME280;52745;49.794;18.258;2023-03-04T07:02:45;-15908.88;;;-1.07;90.86
65157;BME280;52745;49.794;18.258;2023-03-04T07:05:12;-15906.41;;;-1.16;90.38
65157;BME280;52745;49.794;18.258;2023-03-04T07:07:39;-15911.47;;;-0.97;90.09
65157;BME280;52745;49.794;18.258;2023-03-04T07:10:06;-15911.19;;;-0.98;89.25
65157;BME280;52745;49.794;18.258;2023-03-04T07:12:32;-15916.28;;;-0.79;88.59
65157;BME280;52745;49.794;18.258;2023-03-04T07:14:59;-15914.63;;;-0.85;88.33
65157;BME280;52745;49.794;18.258;2023-03-04T07:17:26;-15918.72;;;-0.70;88.79
65157;BME280;52745;49.794;18.258;2023-03-04T07:19:53;-15920.09;;;-0.65;87.84
65157;BME280;52745;49.794;18.258;2023-03-04T07:22:20;-15923.13;;;-0.53;88.94
65157;BME280;52745;49.794;18.258;2023-03-04T07:24:47;-15926.69;;;-0.40;88.96
65157;BME280;52745;49.794;18.258;2023-03-04T07:27:13;-15925.59;;;-0.44;91.98
65157;BME280;52745;49.794;18.258;2023-03-04T07:29:40;-15930.13;;;-0.27;92.40
65157;BME280;52745;49.794;18.258;2023-03-04T07:32:08;-15927.38;;;-0.37;88.52
65157;BME280;52745;49.794;18.258;2023-03-04T07:34:35;-15926.41;;;-0.41;87.33
65157;BME280;52745;49.794;18.258;2023-03-04T07:37:02;-15921.47;;;-0.59;86.34
65157;BME280;52745;49.794;18.258;2023-03-04T07:39:29;-15921.75;;;-0.58;86.35
65157;BME280;52745;49.794;18.258;2023-03-04T07:41:56;-15927.09;;;-0.38;86.57
65157;BME280;52745;49.794;18.258;2023-03-04T07:44:23;-15928.34;;;-0.34;93.33
65157;BME280;52745;49.794;18.258;2023-03-04T07:46:49;-15922.97;;;-0.54;91.49
65157;BME280;52745;49.794;18.258;2023-03-04T07:49:16;-15920.38;;;-0.64;88.64
65157;BME280;52745;49.794;18.258;2023-03-04T07:51:43;-15920.66;;;-0.63;87.31
65157;BME280;52745;49.794;18.258;2023-03-04T07:54:10;-15913.25;;;-0.90;87.16
65157;BME280;52745;49.794;18.258;2023-03-04T07:56:37;-15918.88;;;-0.69;87.56
65157;BME280;52745;49.794;18.258;2023-03-04T07:59:04;-15922.84;;;-0.54;86.99
65157;BME280;52745;49.794;18.258;2023-03-04T08:01:32;-15921.19;;;-0.60;86.36
65157;BME280;52745;49.794;18.258;2023-03-04T08:04:01;-15921.47;;;-0.59;86.51
65157;BME280;52745;49.794;18.258;2023-03-04T08:06:28;-15922.31;;;-0.56;85.88
65157;BME280;52745;49.794;18.258;2023-03-04T08:09:00;-15921.75;;;-0.58;86.58
65157;BME280;52745;49.794;18.258;2023-03-04T08:11:29;-15927.22;;;-0.38;85.83
65157;BME280;52745;49.794;18.258;2023-03-04T08:13:56;-15929.16;;;-0.31;85.04
65157;BME280;52745;49.794;18.258;2023-03-04T08:16:23;-15929.16;;;-0.31;85.16
65157;BME280;52745;49.794;18.258;2023-03-04T08:18:53;-15934.34;;;-0.11;84.48
65157;BME280;52745;49.794;18.258;2023-03-04T08:21:22;-15932.44;;;-0.18;84.89
65157;BME280;52745;49.794;18.258;2023-03-04T08:23:50;-15932.72;;;-0.17;85.05
65157;BME280;52745;49.794;18.258;2023-03-04T08:26:22;-15936.28;;;-0.04;85.47
65157;BME280;52745;49.794;18.258;2023-03-04T08:28:50;-15941.22;;;0.14;84.24
65157;BME280;52745;49.794;18.258;2023-03-04T08:31:17;-15943.53;;;0.23;82.74
65157;BME280;52745;49.794;18.258;2023-03-04T08:33:46;-15940.94;;;0.13;82.98
65157;BME280;52745;49.794;18.258;2023-03-04T08:36:14;-15933.28;;;-0.15;83.83
65157;BME280;52745;49.794;18.258;2023-03-04T08:38:41;-15932.72;;;-0.17;84.32
65157;BME280;52745;49.794;18.258;2023-03-04T08:41:09;-15933.53;;;-0.14;83.83
65157;BME280;52745;49.794;18.258;2023-03-04T08:43:36;-15936.97;;;-0.02;84.15
65157;BME280;52745;49.794;18.258;2023-03-04T08:46:03;-15937.78;;;0.02;83.60
65157;BME280;52745;49.794;18.258;2023-03-04T08:48:30;-15941.22;;;0.14;83.18
65157;BME280;52745;49.794;18.258;2023-03-04T08:50:57;-15942.59;;;0.19;83.40
65157;BME280;52745;49.794;18.258;2023-03-04T08:53:24;-15943.81;;;0.24;81.85
65157;BME280;52745;49.794;18.258;2023-03-04T08:55:52;-15945.47;;;0.30;81.75
65157;BME280;52745;49.794;18.258;2023-03-04T08:58:19;-15948.88;;;0.43;81.19
65157;BME280;52745;49.794;18.258;2023-03-04T09:00:47;-15948.88;;;0.43;80.94
65157;BME280;52745;49.794;18.258;2023-03-04T09:03:15;-15945.31;;;0.30;80.98
65157;BME280;52745;49.794;18.258;2023-03-04T09:05:45;-15938.06;;;0.03;81.15
65157;BME280;52745;49.794;18.258;2023-03-04T09:08:13;-15937.50;;;0.01;81.81
65157;BME280;52745;49.794;18.258;2023-03-04T09:10:40;-15941.34;;;0.15;81.02
65157;BME280;52745;49.794;18.258;2023-03-04T09:13:07;-15945.59;;;0.31;80.22
65157;BME280;52745;49.794;18.258;2023-03-04T09:15:37;-15946.97;;;0.36;80.44
65157;BME280;52745;49.794;18.258;2023-03-04T09:18:09;-15948.06;;;0.40;79.63
65157;BME280;52745;49.794;18.258;2023-03-04T09:20:36;-15947.94;;;0.39;79.67
65157;BME280;52745;49.794;18.258;2023-03-04T09:23:03;-15949.44;;;0.45;80.63
65157;BME280;52745;49.794;18.258;2023-03-04T09:25:29;-15951.91;;;0.54;80.82
65157;BME280;52745;49.794;18.258;2023-03-04T09:27:57;-15949.84;;;0.47;81.69
65157;BME280;52745;49.794;18.258;2023-03-04T09:30:23;-15951.34;;;0.52;81.66
65157;BME280;52745;49.794;18.258;2023-03-04T09:32:50;-15955.75;;;0.69;80.35
65157;BME280;52745;49.794;18.258;2023-03-04T09:35:17;-15961.22;;;0.89;80.43
65157;BME280;52745;49.794;18.258;2023-03-04T09:37:44;-15960.25;;;0.86;80.06
65157;BME280;52745;49.794;18.258;2023-03-04T09:40:18;-15958.22;;;0.78;80.14
65157;BME280;52745;49.794;18.258;2023-03-04T09:42:50;-15966.69;;;1.10;79.25
65157;BME280;52745;49.794;18.258;2023-03-04T09:45:22;-15973.81;;;1.36;78.28
65157;BME280;52745;49.794;18.258;2023-03-04T09:47:52;-15978.63;;;1.54;77.88
65157;BME280;52745;49.794;18.258;2023-03-04T09:50:20;-15983.41;;;1.72;76.31
65157;BME280;52745;49.794;18.258;2023-03-04T09:55:37;-15979.44;;;1.57;78.07
65157;BME280;52745;49.794;18.258;2023-03-04T10:00:44;-15991.34;;;2.02;76.35
65157;BME280;52745;49.794;18.258;2023-03-04T10:03:41;-16002.44;;;2.43;73.36
65157;BME280;52745;49.794;18.258;2023-03-04T10:06:12;-16012.16;;;2.80;71.16
65157;BME280;52745;49.794;18.258;2023-03-04T10:11:46;-16019.28;;;3.06;67.12
65157;BME280;52745;49.794;18.258;2023-03-04T10:19:33;-16091.50;;;5.77;57.83
65157;BME280;52745;49.794;18.258;2023-03-04T10:22:23;-16088.50;;;5.66;57.42
65157;BME280;52745;49.794;18.258;2023-03-04T10:24:55;-16096.69;;;5.96;56.22
65157;BME280;52745;49.794;18.258;2023-03-04T10:27:23;-16115.28;;;6.66;55.46
65157;BME280;52745;49.794;18.258;2023-03-04T10:29:50;-16161.84;;;8.41;51.45
65157;BME280;52745;49.794;18.258;2023-03-04T10:32:19;-16198.28;;;9.78;45.62
65157;BME280;52745;49.794;18.258;2023-03-04T10:34:46;-16216.84;;;10.47;43.02
65157;BME280;52745;49.794;18.258;2023-03-04T10:37:13;-16219.56;;;10.57;42.99
65157;BME280;52745;49.794;18.258;2023-03-04T10:39:44;-16204.56;;;10.01;42.68
65157;BME280;52745;49.794;18.258;2023-03-04T10:44:44;-16191.19;;;9.51;43.15
65157;BME280;52745;49.794;18.258;2023-03-04T10:47:16;-16203.19;;;9.96;43.93
65157;BME280;52745;49.794;18.258;2023-03-04T10:49:57;-16161.44;;;8.39;45.46
65157;BME280;52745;49.794;18.258;2023-03-04T10:52:37;-16126.34;;;7.08;48.83
65157;BME280;52745;49.794;18.258;2023-03-04T10:55:16;-16106.53;;;6.33;51.67
65157;BME280;52745;49.794;18.258;2023-03-04T10:57:56;-16061.28;;;4.64;56.30
65157;BME280;52745;49.794;18.258;2023-03-04T11:00:36;-16054.31;;;4.38;58.18
65157;BME280;52745;49.794;18.258;2023-03-04T11:05:49;-16040.91;;;3.87;61.15
65157;BME280;52745;49.794;18.258;2023-03-04T11:08:17;-16042.00;;;3.91;61.37
65157;BME280;52745;49.794;18.258;2023-03-04T11:10:45;-16034.63;;;3.64;62.20
65157;BME280;52745;49.794;18.258;2023-03-04T11:13:18;-16029.81;;;3.46;62.16
65157;BME280;52745;49.794;18.258;2023-03-04T11:18:12;-16028.59;;;3.41;63.28
65157;BME280;52745;49.794;18.258;2023-03-04T11:20:45;-16028.03;;;3.39;64.00
65157;BME280;52745;49.794;18.258;2023-03-04T11:23:17;-16015.44;;;2.92;64.72
65157;BME280;52745;49.794;18.258;2023-03-04T11:25:48;-16015.19;;;2.91;64.83
65157;BME280;52745;49.794;18.258;2023-03-04T11:28:23;-16011.06;;;2.76;65.57
65157;BME280;52745;49.794;18.258;2023-03-04T11:31:01;-16016.00;;;2.94;65.61
65157;BME280;52745;49.794;18.258;2023-03-04T11:33:44;-16015.03;;;2.90;65.45
65157;BME280;52745;49.794;18.258;2023-03-04T11:36:25;-16006.16;;;2.57;64.91
65157;BME280;52745;49.794;18.258;2023-03-04T11:38:56;-15996.28;;;2.20;67.92
65157;BME280;52745;49.794;18.258;2023-03-04T11:41:35;-15991.63;;;2.03;69.41
65157;BME280;52745;49.794;18.258;2023-03-04T11:44:05;-15986.97;;;1.85;70.62
65157;BME280;52745;49.794;18.258;2023-03-04T11:49:24;-15985.34;;;1.79;71.99
65157;BME280;52745;49.794;18.258;2023-03-04T11:55:01;-15980.13;;;1.60;72.63
65157;BME280;52745;49.794;18.258;2023-03-04T11:57:37;-15988.63;;;1.92;72.15
65157;BME280;52745;49.794;18.258;2023-03-04T12:05:58;-16079.19;;;5.31;58.81
65157;BME280;52745;49.794;18.258;2023-03-04T12:08:41;-16093.69;;;5.85;56.86
65157;BME280;52745;49.794;18.258;2023-03-04T12:17:29;-16102.44;;;6.18;54.99
65157;BME280;52745;49.794;18.258;2023-03-04T12:20:19;-16108.31;;;6.40;54.65
65157;BME280;52745;49.794;18.258;2023-03-04T12:23:07;-16104.63;;;6.26;54.56
65157;BME280;52745;49.794;18.258;2023-03-04T12:25:47;-16108.19;;;6.39;55.11
65157;BME280;52745;49.794;18.258;2023-03-04T12:28:22;-16107.91;;;6.38;55.17
65157;BME280;52745;49.794;18.258;2023-03-04T12:44:42;-16079.34;;;5.31;58.32
65157;BME280;52745;49.794;18.258;2023-03-04T12:47:51;-16069.34;;;4.94;59.88
65157;BME280;52745;49.794;18.258;2023-03-04T12:55:39;-16061.00;;;4.63;62.35
65157;BME280;52745;49.794;18.258;2023-03-04T12:58:24;-16067.44;;;4.87;60.89
65157;BME280;52745;49.794;18.258;2023-03-04T13:01:02;-16072.91;;;5.07;59.97
65157;BME280;52745;49.794;18.258;2023-03-04T13:09:25;-16099.97;;;6.09;56.78
65157;BME280;52745;49.794;18.258;2023-03-04T13:22:58;-16036.25;;;3.70;64.02
65157;BME280;52745;49.794;18.258;2023-03-04T13:28:19;-16031.06;;;3.50;65.29
65157;BME280;52745;49.794;18.258;2023-03-04T13:38:31;-16010.53;;;2.74;68.64
65157;BME280;52745;49.794;18.258;2023-03-04T13:41:22;-16012.16;;;2.80;68.11
65157;BME280;52745;49.794;18.258;2023-03-04T13:43:52;-16008.06;;;2.64;68.69
65157;BME280;52745;49.794;18.258;2023-03-04T13:49:06;-16012.44;;;2.81;68.79
65157;BME280;52745;49.794;18.258;2023-03-04T13:51:42;-16012.03;;;2.79;68.73
65157;BME280;52745;49.794;18.258;2023-03-04T13:54:31;-16009.97;;;2.72;69.04
65157;BME280;52745;49.794;18.258;2023-03-04T13:59:31;-16007.91;;;2.64;68.89
65157;BME280;52745;49.794;18.258;2023-03-04T14:02:18;-16006.16;;;2.57;69.38
65157;BME280;52745;49.794;18.258;2023-03-04T14:04:57;-16011.88;;;2.79;68.54
65157;BME280;52745;49.794;18.258;2023-03-04T14:10:03;-16006.97;;;2.60;69.15
65157;BME280;52745;49.794;18.258;2023-03-04T14:12:53;-16007.66;;;2.63;69.19
65157;BME280;52745;49.794;18.258;2023-03-04T14:15:29;-16005.03;;;2.53;69.62
65157;BME280;52745;49.794;18.258;2023-03-04T14:17:58;-16006.16;;;2.57;69.91
65157;BME280;52745;49.794;18.258;2023-03-04T14:20:27;-16002.84;;;2.45;69.36
65157;BME280;52745;49.794;18.258;2023-03-04T14:22:57;-16004.78;;;2.52;69.59
65157;BME280;52745;49.794;18.258;2023-03-04T14:25:26;-15999.28;;;2.32;68.76
65157;BME280;52745;49.794;18.258;2023-03-04T14:28:10;-15997.50;;;2.25;68.96